createdAt,value
2019-05-16T00:02:33.010Z,9.70
2019-05-16T00:07:38.956Z,9.90
2019-05-16T00:12:42.137Z,9.90
2019-05-16T00:17:45.797Z,9.80
2019-05-16T00:22:49.371Z,9.80
2019-05-16T00:27:52.954Z,9.80
2019-05-16T00:32:58.516Z,9.60
2019-05-16T00:38:02.120Z,9.70
2019-05-16T00:43:08.080Z,9.60
2019-05-16T00:48:11.620Z,9.50
2019-05-16T00:53:15.212Z,9.30
2019-05-16T00:58:19.834Z,9.30
2019-05-16T01:03:23.504Z,9.20
2019-05-16T01:08:28.095Z,9.10
2019-05-16T01:13:32.393Z,9.10
2019-05-16T01:18:37.983Z,9.10
2019-05-16T01:23:41.638Z,9.10
2019-05-16T01:28:45.504Z,9.00
2019-05-16T01:33:49.164Z,9.00
2019-05-16T01:38:52.741Z,8.90
2019-05-16T01:43:58.373Z,8.80
2019-05-16T01:49:01.548Z,8.80
2019-05-16T01:54:05.413Z,8.70
2019-05-16T01:59:09.310Z,8.60
2019-05-16T02:04:12.945Z,8.60
2019-05-16T02:09:18.931Z,8.60
2019-05-16T02:14:22.069Z,8.40
2019-05-16T02:19:27.882Z,8.40
2019-05-16T02:24:30.954Z,8.20
2019-05-16T02:29:34.601Z,8.10
2019-05-16T02:34:41.363Z,8.00
2019-05-16T02:39:43.807Z,7.80
2019-05-16T02:44:47.382Z,7.70
2019-05-16T02:49:50.972Z,7.60
2019-05-16T02:54:54.618Z,7.60
2019-05-16T03:00:01.269Z,7.30
2019-05-16T03:05:05.566Z,7.40
2019-05-16T03:10:11.066Z,7.50
2019-05-16T03:15:15.148Z,7.40
2019-05-16T03:20:21.229Z,7.30
2019-05-16T03:25:24.012Z,7.30
2019-05-16T03:30:27.612Z,7.40
2019-05-16T03:35:34.225Z,7.30
2019-05-16T03:40:37.734Z,7.10
2019-05-16T03:45:42.014Z,7.10
2019-05-16T03:50:45.726Z,7.00
2019-05-16T03:55:51.666Z,7.10
2019-05-16T04:00:55.370Z,7.00
2019-05-16T04:06:01.181Z,6.90
2019-05-16T04:11:04.738Z,6.90
2019-05-16T04:16:11.506Z,7.00
2019-05-16T04:21:13.709Z,6.90
2019-05-16T04:26:17.708Z,6.90
2019-05-16T04:31:22.242Z,6.90
2019-05-16T04:36:25.966Z,6.90
2019-05-16T04:41:31.295Z,6.90
2019-05-16T04:46:35.273Z,7.00
2019-05-16T04:51:41.494Z,7.20
2019-05-16T04:56:44.221Z,7.30
2019-05-16T05:01:51.120Z,7.40
2019-05-16T05:06:55.981Z,7.40
2019-05-16T05:12:04.109Z,7.60
2019-05-16T05:17:05.486Z,7.70
2019-05-16T05:22:10.477Z,8.00
2019-05-16T05:27:14.143Z,7.90
2019-05-16T05:32:19.862Z,8.10
2019-05-16T05:37:23.031Z,8.50
2019-05-16T05:42:26.713Z,8.50
2019-05-16T05:47:30.924Z,8.70
2019-05-16T05:52:34.698Z,9.00
2019-05-16T05:57:40.478Z,9.10
2019-05-16T06:02:43.897Z,9.30
2019-05-16T06:07:47.839Z,9.70
2019-05-16T06:12:51.447Z,9.80
2019-05-16T06:17:55.104Z,10.00
2019-05-16T06:23:00.007Z,10.30
2019-05-16T06:28:04.101Z,10.80
2019-05-16T06:33:10.100Z,11.00
2019-05-16T06:38:13.686Z,11.10
2019-05-16T06:43:20.255Z,11.40
2019-05-16T06:48:23.018Z,11.70
2019-05-16T06:53:26.606Z,11.30
2019-05-16T06:58:30.454Z,11.80
2019-05-16T07:03:34.248Z,11.90
2019-05-16T07:08:40.125Z,11.90
2019-05-16T07:13:43.143Z,12.20
2019-05-16T07:18:47.062Z,12.50
2019-05-16T07:23:51.265Z,12.90
2019-05-16T07:28:54.973Z,13.10
2019-05-16T07:34:00.851Z,13.30
2019-05-16T07:39:05.632Z,12.70
2019-05-16T07:44:10.842Z,13.20
2019-05-16T07:49:14.938Z,13.60
2019-05-16T07:54:21.171Z,13.30
2019-05-16T07:59:23.919Z,13.70
2019-05-16T08:04:30.212Z,14.00
2019-05-16T08:09:32.754Z,14.30
2019-05-16T08:14:36.366Z,14.50
2019-05-16T08:19:40.146Z,14.70
2019-05-16T08:24:43.711Z,15.30
2019-05-16T08:29:48.758Z,15.40
2019-05-16T08:34:53.081Z,15.40
2019-05-16T08:39:57.205Z,15.50
2019-05-16T08:45:01.854Z,15.90
2019-05-16T08:50:13.729Z,16.30
2019-05-16T08:55:14.363Z,15.70
2019-05-16T09:00:22.452Z,15.50
2019-05-16T09:05:23.810Z,15.50
2019-05-16T09:10:49.789Z,14.80
2019-05-16T09:15:32.662Z,15.30
2019-05-16T09:20:37.471Z,15.90
2019-05-16T09:25:42.046Z,16.20
2019-05-16T09:30:46.868Z,17.00
2019-05-16T09:35:50.787Z,17.20
2019-05-16T09:40:56.979Z,17.90
2019-05-16T09:46:03.985Z,18.00
2019-05-16T09:51:06.646Z,17.50
2019-05-16T09:56:10.607Z,17.40
2019-05-16T10:01:17.081Z,17.40
2019-05-16T10:06:19.935Z,17.80
2019-05-16T10:11:23.529Z,18.70
2019-05-16T10:16:27.686Z,18.60
2019-05-16T10:21:31.478Z,18.80
2019-05-16T10:26:37.070Z,18.30
2019-05-16T10:31:48.492Z,18.50
2019-05-16T10:36:47.183Z,18.40
2019-05-16T10:41:51.486Z,18.70
2019-05-16T10:46:55.148Z,18.60
2019-05-16T10:51:59.184Z,18.30
2019-05-16T10:57:03.236Z,17.70
2019-05-16T11:02:07.530Z,17.40
2019-05-16T11:07:11.376Z,17.70
2019-05-16T11:12:19.904Z,17.10
2019-05-16T11:17:20.216Z,17.20
2019-05-16T11:22:23.810Z,17.30
2019-05-16T11:27:27.399Z,17.00
2019-05-16T11:32:30.997Z,17.20
2019-05-16T11:37:36.871Z,17.30
2019-05-16T11:42:39.906Z,17.60
2019-05-16T11:47:43.558Z,17.70
2019-05-16T11:52:47.830Z,17.70
2019-05-16T11:57:51.548Z,17.80
2019-05-16T12:02:55.301Z,17.80
2019-05-16T12:07:58.977Z,17.40
2019-05-16T12:13:02.618Z,17.50
2019-05-16T12:18:08.505Z,17.40
2019-05-16T12:23:12.411Z,16.80
2019-05-16T12:28:16.826Z,17.10
2019-05-16T12:38:38.268Z,17.50
2019-05-16T12:43:48.993Z,17.50
2019-05-16T12:48:47.588Z,17.50
2019-05-16T12:53:51.298Z,17.60
2019-05-16T12:58:54.901Z,17.90
2019-05-16T13:03:58.616Z,18.00
2019-05-16T13:09:02.544Z,17.10
2019-05-16T13:14:10.144Z,17.30
2019-05-16T13:19:11.524Z,17.50
2019-05-16T13:24:18.320Z,17.60
2019-05-16T13:29:20.688Z,17.60
2019-05-16T13:34:24.356Z,17.40
2019-05-16T13:39:28.368Z,17.00
2019-05-16T13:44:32.046Z,17.20
2019-05-16T13:49:38.710Z,17.20
2019-05-16T13:54:40.960Z,17.30
2019-05-16T13:59:44.568Z,17.30
2019-05-16T14:04:48.634Z,17.70
2019-05-16T14:09:52.515Z,17.90
2019-05-16T14:14:56.119Z,18.00
2019-05-16T14:19:59.788Z,18.10
2019-05-16T14:25:07.099Z,18.10
2019-05-16T14:30:11.072Z,18.40
2019-05-16T14:35:15.232Z,18.40
2019-05-16T14:40:19.072Z,18.30
2019-05-16T14:45:23.195Z,18.40
2019-05-16T14:50:29.131Z,18.30
2019-05-16T14:55:32.825Z,18.40
2019-05-16T15:00:39.521Z,18.40
2019-05-16T15:05:43.294Z,18.30
2019-05-16T15:10:48.642Z,18.00
2019-05-16T15:15:52.656Z,18.00
2019-05-16T15:20:57.487Z,18.20
2019-05-16T15:26:01.363Z,18.10
2019-05-16T15:31:07.016Z,17.90
2019-05-16T15:36:11.155Z,17.80
2019-05-16T15:41:16.618Z,17.50
2019-05-16T15:46:20.286Z,17.30
2019-05-16T15:51:24.319Z,17.10
2019-05-16T15:56:28.816Z,16.70
2019-05-16T16:01:32.781Z,16.30
2019-05-16T16:06:37.976Z,16.10
2019-05-16T16:11:44.689Z,15.70
2019-05-16T16:16:48.737Z,15.80
2019-05-16T16:21:52.412Z,15.70
2019-05-16T16:26:56.616Z,15.90
2019-05-16T16:32:00.651Z,16.30
2019-05-16T16:37:04.634Z,16.20
2019-05-16T16:42:08.288Z,16.00
2019-05-16T16:47:17.570Z,15.60
2019-05-16T16:52:19.601Z,15.50
2019-05-16T16:57:23.297Z,15.40
2019-05-16T17:02:27.843Z,15.30
2019-05-16T17:07:31.671Z,15.10
2019-05-16T17:12:40.217Z,15.10
2019-05-16T17:17:40.645Z,15.10
2019-05-16T17:22:46.554Z,15.10
2019-05-16T17:27:50.055Z,14.90
2019-05-16T17:32:56.544Z,14.90
2019-05-16T17:37:59.502Z,14.90
2019-05-16T17:43:03.324Z,14.90
2019-05-16T17:48:07.072Z,15.00
2019-05-16T17:53:10.885Z,15.00
2019-05-16T17:58:23.617Z,15.10
2019-05-16T18:03:27.256Z,15.10
2019-05-16T18:08:31.206Z,15.00
2019-05-16T18:13:36.866Z,14.90
2019-05-16T18:18:40.042Z,14.90
2019-05-16T18:23:44.018Z,14.80
2019-05-16T18:28:47.622Z,14.90
2019-05-16T18:33:51.566Z,14.80
2019-05-16T18:38:57.495Z,14.80
2019-05-16T18:44:06.497Z,14.70
2019-05-16T18:49:10.837Z,14.60
2019-05-16T18:54:17.328Z,14.50
2019-05-16T18:59:26.221Z,14.50
2019-05-16T19:04:29.827Z,14.40
2019-05-16T19:09:33.479Z,14.50
2019-05-16T19:14:37.208Z,14.40
2019-05-16T19:19:40.830Z,14.40
2019-05-16T19:24:46.371Z,14.30
2019-05-16T19:29:49.727Z,14.00
2019-05-16T19:34:53.402Z,13.90
2019-05-16T19:39:57.117Z,14.00
2019-05-16T19:45:01.091Z,14.00
2019-05-16T19:50:06.712Z,14.00
2019-05-16T19:55:10.885Z,14.00
2019-05-16T20:05:51.490Z,13.90
2019-05-16T20:10:55.537Z,13.80
2019-05-16T20:15:59.175Z,13.60
2019-05-16T20:21:03.357Z,13.60
2019-05-16T20:26:07.752Z,13.60
2019-05-16T20:31:12.000Z,13.50
2019-05-16T20:36:17.358Z,13.50
2019-05-16T20:41:21.185Z,13.40
2019-05-16T20:46:24.979Z,13.30
2019-05-16T20:51:28.746Z,13.20
2019-05-16T20:56:32.339Z,13.10
2019-05-16T21:01:36.317Z,12.80
2019-05-16T21:06:40.065Z,12.60
2019-05-16T21:11:43.723Z,12.60
2019-05-16T21:16:49.594Z,12.60
2019-05-16T21:21:53.818Z,12.30
2019-05-16T21:26:57.489Z,12.30
2019-05-16T21:32:01.612Z,12.00
2019-05-16T21:37:14.501Z,12.00
2019-05-16T21:42:10.766Z,11.90
2019-05-16T21:47:19.263Z,11.80
2019-05-16T21:52:19.702Z,11.30
2019-05-16T21:57:23.944Z,11.10
2019-05-16T22:02:27.606Z,11.20
2019-05-16T22:07:33.606Z,11.20
2019-05-16T22:12:38.439Z,10.90
2019-05-16T22:17:42.228Z,11.00
2019-05-16T22:22:46.981Z,10.80
2019-05-16T22:27:50.770Z,10.90
2019-05-16T22:32:54.514Z,11.10
2019-05-16T22:37:59.454Z,11.20
2019-05-16T22:43:03.281Z,11.30
2019-05-16T22:48:07.348Z,11.20
2019-05-16T22:53:11.126Z,11.00
2019-05-16T22:58:16.407Z,10.90
2019-05-16T23:03:20.099Z,10.70
2019-05-16T23:08:24.009Z,10.60
2019-05-16T23:13:27.618Z,10.60
2019-05-16T23:18:31.212Z,10.50
2019-05-16T23:23:37.011Z,10.30
2019-05-16T23:28:40.108Z,10.20
2019-05-16T23:33:43.998Z,10.00
2019-05-16T23:38:48.026Z,9.80
2019-05-16T23:43:51.630Z,9.90
2019-05-16T23:48:56.598Z,9.70
2019-05-16T23:54:00.333Z,9.70
2019-05-16T23:59:06.644Z,9.50
